HISTORICAL SENSOR DATA

Sensor Data Report

DB LIVE
CURRENT TIME--:--:--
DEVICE NETWORK Gateway Status
13 ESP · realtime ~1s · history 60s
Weather WS-MOD-01
ONLINE
Actuator ACT-MOD-01
OFFLINE
Mainboard L3 MB-L3-01
ONLINE
Mainboard L5 MB-L5-01
ONLINE
Remote AC AC-REMOTE-01
ONLINE
PZEM L3-01 PWR-L3-01
OFFLINE
PZEM L3-02 PWR-L3-02
OFFLINE
PZEM L3-03 PWR-L3-03
OFFLINE
PZEM L3-04 PWR-L3-04
OFFLINE
PZEM L5-01 PWR-L5-01
ONLINE
PZEM L5-02 PWR-L5-02
ONLINE
PZEM L5-03 PWR-L5-03
OFFLINE
PZEM L5-04 PWR-L5-04
OFFLINE
REPORT FILTER

Periode & Sensor

DATABASE HISTORY
RESET
QUICK RANGE Hari ini 7 hari 30 hari
PERIODE01 Sep 2026sampai 07 Sep 2026
TOTAL DATA75,774sensor readings
MINIMUM-0.50sesuai filter
AVERAGE79.60sesuai filter
MAXIMUM32,564.20sesuai filter
REPORT RESULT

Data Sensor

01/09/2026 — 07/09/2026 EXPORT CSV
NOTANGGALWAKTUDEVICECHANNELSENSORVALUEUNIT
101 07/09/2026 01:56:00 MB-L5-01Mainboard Lantai 5 L5-AI-05 Analog Input 5 3.05 V
102 07/09/2026 01:56:00 MB-L3-01Mainboard Lantai 3 L3-AI-06 Analog Input 6 3.12 V
103 07/09/2026 01:56:00 MB-L5-01Mainboard Lantai 5 L5-LUX-06 Illuminance / LUX 6 0.10 lux
104 07/09/2026 01:56:00 MB-L3-01Mainboard Lantai 3 L3-SHT-01-RH SHT20 1 Humidity 46.20 %RH
105 07/09/2026 01:56:00 MB-L3-01Mainboard Lantai 3 L3-LUX-06 Illuminance / LUX 6 0.30 lux
106 07/09/2026 01:56:00 MB-L3-01Mainboard Lantai 3 L3-RAD-02 Radiation 2 1.00 W/m²
107 07/09/2026 01:56:00 MB-L5-01Mainboard Lantai 5 L5-SHT-03-T SHT20 3 Temperature 28.60 °C
108 07/09/2026 01:56:00 MB-L5-01Mainboard Lantai 5 L5-LUX-02 Illuminance / LUX 2 0.10 lux
109 07/09/2026 01:56:00 MB-L3-01Mainboard Lantai 3 L3-AI-02 Analog Input 2 3.12 V
110 07/09/2026 01:56:00 MB-L3-01Mainboard Lantai 3 L3-SHT-02-T SHT20 2 Temperature 28.80 °C
111 07/09/2026 01:56:00 MB-L5-01Mainboard Lantai 5 L5-HFT-01 Heat Flow Temperature 1 23.50 °C
112 07/09/2026 01:56:00 WS-MOD-01Weather Station Module WS-TEMP Suhu Udara 19.10 °C
113 07/09/2026 01:56:00 MB-L5-01Mainboard Lantai 5 L5-AI-06 Analog Input 6 3.05 V
114 07/09/2026 01:56:00 PWR-L5-01Power Meter L5 PZEM 01 PZEM-L5-01-PF PZEM L5-01 Power Factor 0.39
115 07/09/2026 01:56:00 AC-REMOTE-01Remote AC AC-SETPOINT AC Set Temperature 23.00 °C
116 07/09/2026 01:56:00 WS-MOD-01Weather Station Module WS-PRES Tekanan Udara 910.00 hPa
117 07/09/2026 01:56:00 MB-L5-01Mainboard Lantai 5 L5-AI-01 Analog Input 1 3.05 V
118 07/09/2026 01:56:00 PWR-L5-01Power Meter L5 PZEM 01 PZEM-L5-01-FREQ PZEM L5-01 Frequency 50.00 Hz
119 07/09/2026 01:56:00 MB-L3-01Mainboard Lantai 3 L3-SHT-02-RH SHT20 2 Humidity 45.60 %RH
120 07/09/2026 01:56:00 PWR-L5-01Power Meter L5 PZEM 01 PZEM-L5-01-ENERGY PZEM L5-01 Energy 0.08 kWh
121 07/09/2026 01:56:00 PWR-L5-02Power Meter L5 PZEM 02 PZEM-L5-02-CURR PZEM L5-02 Current 0.00 A
122 07/09/2026 01:56:00 PWR-L5-01Power Meter L5 PZEM 01 PZEM-L5-01-POWER PZEM L5-01 Active Power 10.50 W
123 07/09/2026 01:56:00 MB-L5-01Mainboard Lantai 5 L5-SHT-02-RH SHT20 2 Humidity 45.80 %RH
124 07/09/2026 01:56:00 PWR-L5-02Power Meter L5 PZEM 02 PZEM-L5-02-ENERGY PZEM L5-02 Energy 0.04 kWh
125 07/09/2026 01:56:00 MB-L3-01Mainboard Lantai 3 L3-AI-03 Analog Input 3 3.12 V
126 07/09/2026 01:56:00 PWR-L5-01Power Meter L5 PZEM 01 PZEM-L5-01-CURR PZEM L5-01 Current 0.12 A
127 07/09/2026 01:56:00 MB-L5-01Mainboard Lantai 5 L5-BGT-01 Black Globe Temperature 1 26.50 °C
128 07/09/2026 01:56:00 PWR-L5-01Power Meter L5 PZEM 01 PZEM-L5-01-VOLT PZEM L5-01 Voltage 226.30 V
129 07/09/2026 01:56:00 MB-L3-01Mainboard Lantai 3 L3-LUX-03 Illuminance / LUX 3 0.20 lux
130 07/09/2026 01:56:00 MB-L5-01Mainboard Lantai 5 L5-HFT-02 Heat Flow Temperature 2 22.70 °C
131 07/09/2026 01:56:00 MB-L5-01Mainboard Lantai 5 L5-SHT-02-T SHT20 2 Temperature 28.70 °C
132 07/09/2026 01:56:00 AC-REMOTE-01Remote AC AC-FAN AC Fan Speed 0.00 code
133 07/09/2026 01:56:00 PWR-L5-02Power Meter L5 PZEM 02 PZEM-L5-02-PF PZEM L5-02 Power Factor 0.00
134 07/09/2026 01:56:00 MB-L5-01Mainboard Lantai 5 L5-AI-02 Analog Input 2 3.05 V
135 07/09/2026 01:55:00 MB-L3-01Mainboard Lantai 3 L3-LUX-04 Illuminance / LUX 4 0.10 lux
136 07/09/2026 01:55:00 WS-MOD-01Weather Station Module WS-DIR Arah Angin 152.20 °
137 07/09/2026 01:55:00 MB-L5-01Mainboard Lantai 5 L5-LUX-04 Illuminance / LUX 4 0.10 lux
138 07/09/2026 01:55:00 WS-MOD-01Weather Station Module WS-RH Kelembapan Udara 79.20 %RH
139 07/09/2026 01:55:00 MB-L5-01Mainboard Lantai 5 L5-BGT-03 Black Globe Temperature 3 26.20 °C
140 07/09/2026 01:55:00 MB-L3-01Mainboard Lantai 3 L3-LUX-02 Illuminance / LUX 2 0.20 lux
141 07/09/2026 01:55:00 MB-L5-01Mainboard Lantai 5 L5-RAD-02 Radiation 2 1.00 W/m²
142 07/09/2026 01:55:00 MB-L3-01Mainboard Lantai 3 L3-RAD-01 Radiation 1 1.00 W/m²
143 07/09/2026 01:55:00 PWR-L5-02Power Meter L5 PZEM 02 PZEM-L5-02-VOLT PZEM L5-02 Voltage 226.30 V
144 07/09/2026 01:55:00 MB-L3-01Mainboard Lantai 3 L3-AI-05 Analog Input 5 3.12 V
145 07/09/2026 01:55:00 PWR-L5-02Power Meter L5 PZEM 02 PZEM-L5-02-POWER PZEM L5-02 Active Power 0.00 W
146 07/09/2026 01:55:00 MB-L5-01Mainboard Lantai 5 L5-AI-04 Analog Input 4 3.05 V
147 07/09/2026 01:55:00 AC-REMOTE-01Remote AC AC-MODE AC Operating Mode 1.00 code
148 07/09/2026 01:55:00 MB-L5-01Mainboard Lantai 5 L5-SHT-01-T SHT20 1 Temperature 28.40 °C
149 07/09/2026 01:55:00 MB-L3-01Mainboard Lantai 3 L3-SHT-03-RH SHT20 3 Humidity 45.50 %RH
150 07/09/2026 01:55:00 MB-L5-01Mainboard Lantai 5 L5-SHT-03-RH SHT20 3 Humidity 46.20 %RH
151 07/09/2026 01:55:00 PWR-L5-02Power Meter L5 PZEM 02 PZEM-L5-02-FREQ PZEM L5-02 Frequency 50.00 Hz
152 07/09/2026 01:55:00 MB-L5-01Mainboard Lantai 5 L5-ST-01 Surface Temperature 1 23.70 °C
153 07/09/2026 01:55:00 MB-L3-01Mainboard Lantai 3 L3-AI-01 Analog Input 1 3.12 V
154 07/09/2026 01:55:00 MB-L5-01Mainboard Lantai 5 L5-LUX-05 Illuminance / LUX 5 0.10 lux
155 07/09/2026 01:55:00 MB-L5-01Mainboard Lantai 5 L5-RAD-01 Radiation 1 1.00 W/m²
156 07/09/2026 01:55:00 MB-L5-01Mainboard Lantai 5 L5-ST-02 Surface Temperature 2 22.90 °C
157 07/09/2026 01:55:00 MB-L5-01Mainboard Lantai 5 L5-AI-05 Analog Input 5 3.05 V
158 07/09/2026 01:55:00 MB-L3-01Mainboard Lantai 3 L3-AI-06 Analog Input 6 3.12 V
159 07/09/2026 01:55:00 MB-L5-01Mainboard Lantai 5 L5-LUX-06 Illuminance / LUX 6 0.10 lux
160 07/09/2026 01:55:00 MB-L3-01Mainboard Lantai 3 L3-SHT-01-RH SHT20 1 Humidity 46.30 %RH
161 07/09/2026 01:55:00 MB-L3-01Mainboard Lantai 3 L3-LUX-06 Illuminance / LUX 6 0.30 lux
162 07/09/2026 01:55:00 MB-L3-01Mainboard Lantai 3 L3-RAD-02 Radiation 2 1.00 W/m²
163 07/09/2026 01:55:00 MB-L5-01Mainboard Lantai 5 L5-SHT-03-T SHT20 3 Temperature 28.60 °C
164 07/09/2026 01:55:00 MB-L5-01Mainboard Lantai 5 L5-LUX-02 Illuminance / LUX 2 0.10 lux
165 07/09/2026 01:55:00 MB-L3-01Mainboard Lantai 3 L3-AI-02 Analog Input 2 3.12 V
166 07/09/2026 01:55:00 MB-L3-01Mainboard Lantai 3 L3-SHT-02-T SHT20 2 Temperature 28.70 °C
167 07/09/2026 01:55:00 MB-L5-01Mainboard Lantai 5 L5-HFT-01 Heat Flow Temperature 1 23.60 °C
168 07/09/2026 01:55:00 WS-MOD-01Weather Station Module WS-TEMP Suhu Udara 19.10 °C
169 07/09/2026 01:55:00 MB-L5-01Mainboard Lantai 5 L5-AI-06 Analog Input 6 3.05 V
170 07/09/2026 01:55:00 PWR-L5-01Power Meter L5 PZEM 01 PZEM-L5-01-PF PZEM L5-01 Power Factor 0.39
171 07/09/2026 01:55:00 AC-REMOTE-01Remote AC AC-SETPOINT AC Set Temperature 23.00 °C
172 07/09/2026 01:55:00 WS-MOD-01Weather Station Module WS-PRES Tekanan Udara 910.00 hPa
173 07/09/2026 01:55:00 MB-L5-01Mainboard Lantai 5 L5-AI-01 Analog Input 1 3.05 V
174 07/09/2026 01:55:00 PWR-L5-01Power Meter L5 PZEM 01 PZEM-L5-01-FREQ PZEM L5-01 Frequency 50.00 Hz
175 07/09/2026 01:55:00 MB-L3-01Mainboard Lantai 3 L3-SHT-02-RH SHT20 2 Humidity 45.60 %RH
176 07/09/2026 01:55:00 PWR-L5-01Power Meter L5 PZEM 01 PZEM-L5-01-ENERGY PZEM L5-01 Energy 0.08 kWh
177 07/09/2026 01:55:00 PWR-L5-02Power Meter L5 PZEM 02 PZEM-L5-02-CURR PZEM L5-02 Current 0.00 A
178 07/09/2026 01:55:00 PWR-L5-01Power Meter L5 PZEM 01 PZEM-L5-01-POWER PZEM L5-01 Active Power 10.50 W
179 07/09/2026 01:55:00 MB-L5-01Mainboard Lantai 5 L5-SHT-02-RH SHT20 2 Humidity 45.80 %RH
180 07/09/2026 01:55:00 PWR-L5-02Power Meter L5 PZEM 02 PZEM-L5-02-ENERGY PZEM L5-02 Energy 0.04 kWh
181 07/09/2026 01:55:00 MB-L3-01Mainboard Lantai 3 L3-AI-03 Analog Input 3 3.12 V
182 07/09/2026 01:55:00 PWR-L5-01Power Meter L5 PZEM 01 PZEM-L5-01-CURR PZEM L5-01 Current 0.12 A
183 07/09/2026 01:55:00 MB-L5-01Mainboard Lantai 5 L5-BGT-01 Black Globe Temperature 1 26.40 °C
184 07/09/2026 01:55:00 PWR-L5-01Power Meter L5 PZEM 01 PZEM-L5-01-VOLT PZEM L5-01 Voltage 226.40 V
185 07/09/2026 01:55:00 MB-L3-01Mainboard Lantai 3 L3-LUX-03 Illuminance / LUX 3 0.20 lux
186 07/09/2026 01:55:00 MB-L5-01Mainboard Lantai 5 L5-HFT-02 Heat Flow Temperature 2 22.60 °C
187 07/09/2026 01:55:00 MB-L5-01Mainboard Lantai 5 L5-SHT-02-T SHT20 2 Temperature 28.70 °C
188 07/09/2026 01:55:00 AC-REMOTE-01Remote AC AC-FAN AC Fan Speed 0.00 code
189 07/09/2026 01:55:00 PWR-L5-02Power Meter L5 PZEM 02 PZEM-L5-02-PF PZEM L5-02 Power Factor 0.00
190 07/09/2026 01:55:00 MB-L5-01Mainboard Lantai 5 L5-AI-02 Analog Input 2 3.05 V
191 07/09/2026 01:55:00 MB-L5-01Mainboard Lantai 5 L5-SHT-01-RH SHT20 1 Humidity 46.70 %RH
192 07/09/2026 01:55:00 MB-L3-01Mainboard Lantai 3 L3-SHT-01-T SHT20 1 Temperature 28.30 °C
193 07/09/2026 01:55:00 MB-L3-01Mainboard Lantai 3 L3-LUX-05 Illuminance / LUX 5 0.30 lux
194 07/09/2026 01:55:00 MB-L5-01Mainboard Lantai 5 L5-BGT-02 Black Globe Temperature 2 26.50 °C
195 07/09/2026 01:55:00 MB-L3-01Mainboard Lantai 3 L3-AI-04 Analog Input 4 3.12 V
196 07/09/2026 01:55:00 MB-L3-01Mainboard Lantai 3 L3-SHT-03-T SHT20 3 Temperature 28.70 °C
197 07/09/2026 01:55:00 MB-L5-01Mainboard Lantai 5 L5-LUX-01 Illuminance / LUX 1 0.00 lux
198 07/09/2026 01:55:00 AC-REMOTE-01Remote AC AC-POWER AC Power State 1.00 state
199 07/09/2026 01:55:00 MB-L5-01Mainboard Lantai 5 L5-AI-03 Analog Input 3 3.05 V
200 07/09/2026 01:55:00 MB-L3-01Mainboard Lantai 3 L3-LUX-01 Illuminance / LUX 1 0.20 lux
Menampilkan maksimal 100 data per halaman